createdAt,value
2016-10-12T00:00:30.539Z,92.18
2016-10-12T00:01:30.510Z,92.08
2016-10-12T00:02:30.484Z,92.36
2016-10-12T00:03:30.458Z,92.18
2016-10-12T00:04:30.430Z,92.18
2016-10-12T00:05:30.403Z,92.27
2016-10-12T00:06:30.377Z,92.08
2016-10-12T00:07:30.346Z,91.79
2016-10-12T00:08:30.319Z,92.27
2016-10-12T00:09:30.293Z,91.7
2016-10-12T00:10:30.272Z,92.18
2016-10-12T00:11:30.252Z,91.99
2016-10-12T00:12:30.212Z,92.18
2016-10-12T00:13:30.182Z,92.36
2016-10-12T00:14:30.155Z,92.94
2016-10-12T00:15:30.138Z,92.65
2016-10-12T00:16:30.101Z,92.74
2016-10-12T00:17:30.073Z,92.65
2016-10-12T00:18:30.046Z,92.65
2016-10-12T00:19:30.017Z,92.84
2016-10-12T00:20:29.991Z,92.84
2016-10-12T00:21:29.963Z,92.74
2016-10-12T00:22:29.941Z,92.55
2016-10-12T00:23:29.911Z,92.65
2016-10-12T00:24:29.882Z,92.65
2016-10-12T00:25:29.853Z,92.65
2016-10-12T00:26:29.826Z,92.84
2016-10-12T00:27:29.802Z,92.84
2016-10-12T00:28:29.772Z,92.65
2016-10-12T00:29:29.743Z,92.84
2016-10-12T00:30:29.715Z,92.55
2016-10-12T00:31:29.690Z,92.65
2016-10-12T00:32:29.658Z,92.46
2016-10-12T00:33:29.631Z,92.65
2016-10-12T00:34:29.604Z,92.65
2016-10-12T00:35:29.580Z,92.74
2016-10-12T00:36:29.549Z,93.03
2016-10-12T00:37:29.522Z,92.94
2016-10-12T00:38:29.502Z,92.74
2016-10-12T00:39:29.469Z,93.03
2016-10-12T00:40:29.444Z,93.13
2016-10-12T00:41:29.413Z,93.13
2016-10-12T00:42:29.392Z,92.84
2016-10-12T00:43:29.355Z,92.94
2016-10-12T00:44:29.329Z,92.74
2016-10-12T00:45:29.302Z,92.65
2016-10-12T00:46:29.275Z,92.94
2016-10-12T00:47:29.246Z,92.89
2016-10-12T00:48:29.226Z,92.79
2016-10-12T00:49:29.192Z,92.94
2016-10-12T00:50:29.165Z,92.55
2016-10-12T00:51:29.139Z,93.27
2016-10-12T00:52:29.112Z,92.94
2016-10-12T00:53:29.084Z,92.99
2016-10-12T00:54:29.053Z,93.08
2016-10-12T00:55:29.030Z,92.7
2016-10-12T00:56:28.999Z,93.37
2016-10-12T00:57:28.970Z,93.51
2016-10-12T00:58:28.941Z,93.27
2016-10-12T00:59:28.915Z,92.99
2016-10-12T01:00:28.889Z,93.55
2016-10-12T01:01:28.861Z,93.6
2016-10-12T01:02:28.833Z,93.37
2016-10-12T01:03:28.804Z,93.84
2016-10-12T01:04:28.777Z,93.89
2016-10-12T01:05:28.749Z,93.65
2016-10-12T01:06:28.720Z,93.7
2016-10-12T01:07:28.695Z,93.65
2016-10-12T01:08:28.666Z,93.79
2016-10-12T01:09:28.639Z,93.84
2016-10-12T01:10:28.611Z,93.6
2016-10-12T01:11:28.583Z,93.6
2016-10-12T01:12:28.557Z,93.7
2016-10-12T01:13:28.529Z,93.79
2016-10-12T01:14:28.502Z,93.37
2016-10-12T01:15:28.475Z,93.7
2016-10-12T01:16:28.443Z,93.79
2016-10-12T01:17:28.418Z,93.84
2016-10-12T01:18:28.389Z,93.89
2016-10-12T01:19:28.364Z,93.79
2016-10-12T01:20:28.334Z,93.84
2016-10-12T01:21:28.315Z,93.37
2016-10-12T01:22:28.277Z,93.55
2016-10-12T01:23:28.254Z,93.7
2016-10-12T01:24:28.224Z,93.41
2016-10-12T01:25:28.195Z,93.55
2016-10-12T01:26:28.167Z,93.84
2016-10-12T01:27:28.140Z,93.84
2016-10-12T01:28:28.111Z,93.55
2016-10-12T01:29:28.086Z,93.84
2016-10-12T01:30:28.059Z,93.84
2016-10-12T01:31:28.035Z,93.84
2016-10-12T01:32:28.002Z,93.55
2016-10-12T01:33:27.974Z,93.65
2016-10-12T01:34:27.946Z,93.65
2016-10-12T01:35:27.917Z,93.55
2016-10-12T01:36:27.891Z,93.37
2016-10-12T01:37:27.863Z,93.74
2016-10-12T01:38:27.832Z,93.46
2016-10-12T01:39:27.815Z,93.65
2016-10-12T01:40:27.783Z,93.74
2016-10-12T01:41:27.754Z,93.94
2016-10-12T01:42:27.725Z,94.03
2016-10-12T01:43:27.696Z,93.74
2016-10-12T01:44:27.668Z,93.65
2016-10-12T01:45:27.641Z,93.84
2016-10-12T01:46:27.612Z,93.46
2016-10-12T01:47:27.586Z,93.65
2016-10-12T01:48:27.558Z,94.32
2016-10-12T01:49:27.528Z,94.22
2016-10-12T01:50:27.501Z,93.74
2016-10-12T01:51:27.480Z,93.55
2016-10-12T01:52:27.447Z,93.65
2016-10-12T01:53:27.417Z,93.74
2016-10-12T01:54:27.391Z,93.84
2016-10-12T01:55:27.362Z,94.03
2016-10-12T01:56:27.335Z,93.65
2016-10-12T01:57:27.307Z,93.84
2016-10-12T01:58:27.278Z,93.94
2016-10-12T01:59:27.251Z,94.13
2016-10-12T02:00:27.226Z,94.13
2016-10-12T02:01:27.194Z,93.94
2016-10-12T02:02:27.168Z,94.13
2016-10-12T02:03:27.140Z,94.03
2016-10-12T02:04:27.112Z,94.13
2016-10-12T02:05:27.085Z,94.13
2016-10-12T02:06:27.057Z,94.03
2016-10-12T02:07:27.028Z,94.32
2016-10-12T02:08:27.000Z,94.32
2016-10-12T02:09:26.973Z,93.94
2016-10-12T02:10:26.948Z,94.32
2016-10-12T02:11:26.923Z,94.42
2016-10-12T02:12:26.888Z,94.32
2016-10-12T02:13:26.860Z,94.13
2016-10-12T02:14:26.831Z,94.13
2016-10-12T02:15:26.803Z,94.03
2016-10-12T02:16:26.774Z,94.13
2016-10-12T02:17:26.748Z,93.94
2016-10-12T02:18:26.732Z,94.42
2016-10-12T02:19:26.693Z,94.42
2016-10-12T02:20:26.664Z,93.94
2016-10-12T02:21:26.639Z,94.03
2016-10-12T02:22:26.610Z,94.03
2016-10-12T02:23:26.582Z,94.32
2016-10-12T02:24:26.555Z,94.32
2016-10-12T02:25:26.524Z,94.32
2016-10-12T02:26:26.498Z,94.03
2016-10-12T02:27:26.467Z,94.03
2016-10-12T02:28:26.442Z,93.94
2016-10-12T02:29:26.411Z,94.32
2016-10-12T02:30:26.384Z,94.13
2016-10-12T02:31:26.357Z,94.03
2016-10-12T02:32:26.330Z,94.22
2016-10-12T02:33:26.303Z,94.22
2016-10-12T02:34:26.275Z,94.22
2016-10-12T02:35:26.247Z,94.22
2016-10-12T02:36:26.220Z,94.13
2016-10-12T02:37:26.190Z,94.22
2016-10-12T02:38:26.162Z,94.13
2016-10-12T02:39:26.133Z,93.94
2016-10-12T02:40:26.106Z,94.03
2016-10-12T02:41:26.078Z,94.13
2016-10-12T02:42:26.047Z,94.22
2016-10-12T02:43:26.020Z,94.13
2016-10-12T02:44:25.991Z,94.13
2016-10-12T02:45:25.966Z,94.22
2016-10-12T02:46:25.934Z,94.42
2016-10-12T02:47:25.910Z,94.22
2016-10-12T02:48:25.879Z,94.03
2016-10-12T02:49:25.854Z,94.13
2016-10-12T02:50:25.825Z,94.13
2016-10-12T02:51:25.797Z,94.22
2016-10-12T02:52:25.770Z,94.32
2016-10-12T02:53:25.738Z,94.03
2016-10-12T02:54:25.714Z,94.22
2016-10-12T02:55:25.682Z,94.22
2016-10-12T02:56:25.653Z,94.32
2016-10-12T02:57:25.627Z,94.32
2016-10-12T02:58:25.599Z,94.32
2016-10-12T02:59:25.570Z,94.03
2016-10-12T03:00:25.543Z,94.32
2016-10-12T03:01:25.519Z,93.94
2016-10-12T03:02:25.487Z,94.13
2016-10-12T03:03:25.461Z,94.13
2016-10-12T03:04:25.428Z,94.32
2016-10-12T03:05:25.402Z,94.03
2016-10-12T03:06:25.373Z,94.13
2016-10-12T03:07:25.347Z,94.32
2016-10-12T03:08:25.317Z,93.94
2016-10-12T03:09:25.289Z,94.42
2016-10-12T03:10:25.263Z,94.51
2016-10-12T03:11:25.237Z,94.37
2016-10-12T03:12:25.207Z,93.94
2016-10-12T03:13:25.179Z,94.27
2016-10-12T03:14:25.149Z,94.18
2016-10-12T03:15:25.123Z,94.22
2016-10-12T03:16:25.097Z,94.37
2016-10-12T03:17:25.065Z,94.08
2016-10-12T03:18:25.037Z,94.37
2016-10-12T03:19:25.009Z,94.51
2016-10-12T03:20:24.980Z,94.32
2016-10-12T03:21:24.954Z,94.42
2016-10-12T03:22:24.923Z,94.27
2016-10-12T03:23:24.897Z,93.94
2016-10-12T03:24:24.868Z,94.03
2016-10-12T03:25:24.840Z,93.6
2016-10-12T03:26:24.811Z,93.7
2016-10-12T03:27:24.783Z,93.84
2016-10-12T03:28:24.754Z,94.18
2016-10-12T03:29:24.727Z,94.27
2016-10-12T03:30:24.703Z,93.94
2016-10-12T03:31:24.671Z,94.37
2016-10-12T03:32:24.642Z,93.89
2016-10-12T03:33:24.615Z,93.98
2016-10-12T03:34:24.586Z,94.27
2016-10-12T03:35:24.560Z,94.18
2016-10-12T03:36:24.527Z,94.51
2016-10-12T03:37:24.502Z,93.6
2016-10-12T03:38:24.473Z,93.6
2016-10-12T03:39:24.444Z,93.98
2016-10-12T03:40:24.417Z,93.79
2016-10-12T03:41:24.387Z,93.51
2016-10-12T03:42:24.362Z,93.51
2016-10-12T03:43:24.585Z,93.89
2016-10-12T03:44:24.304Z,93.89
2016-10-12T03:45:24.284Z,93.7
2016-10-12T03:46:24.246Z,93.7
2016-10-12T03:47:24.219Z,93.6
2016-10-12T03:48:24.494Z,93.6
2016-10-12T03:49:24.164Z,93.79
2016-10-12T03:50:24.135Z,94.27
2016-10-12T03:51:24.107Z,93.79
2016-10-12T03:52:24.077Z,93.89
2016-10-12T03:53:24.345Z,93.98
2016-10-12T03:54:24.023Z,93.89
2016-10-12T03:55:24.002Z,93.7
2016-10-12T03:56:23.964Z,93.6
2016-10-12T03:57:23.943Z,93.7
2016-10-12T03:58:23.906Z,93.89
2016-10-12T03:59:23.879Z,93.04
2016-10-12T04:00:23.850Z,93.51
2016-10-12T04:01:23.831Z,93.89
2016-10-12T04:02:23.793Z,93.7
2016-10-12T04:03:23.768Z,93.89
2016-10-12T04:04:23.736Z,93.32
2016-10-12T04:05:23.711Z,93.04
2016-10-12T04:06:23.683Z,93.79
2016-10-12T04:07:23.654Z,93.51
2016-10-12T04:08:23.626Z,93.51
2016-10-12T04:09:23.597Z,93.41
2016-10-12T04:10:23.570Z,93.41
2016-10-12T04:11:23.539Z,93.41
2016-10-12T04:12:23.510Z,93.51
2016-10-12T04:13:23.486Z,93.41
2016-10-12T04:14:23.458Z,93.7
2016-10-12T04:15:23.427Z,93.7
2016-10-12T04:16:23.398Z,93.7
2016-10-12T04:17:23.372Z,93.32
2016-10-12T04:18:23.347Z,93.51
2016-10-12T04:19:23.313Z,93.51
2016-10-12T04:20:23.284Z,93.32
2016-10-12T04:21:23.257Z,93.32
2016-10-12T04:22:23.228Z,93.41
2016-10-12T04:23:23.201Z,93.04
2016-10-12T04:24:23.173Z,93.7
2016-10-12T04:25:23.147Z,93.51
2016-10-12T04:26:23.115Z,93.51
2016-10-12T04:27:23.088Z,93.23
2016-10-12T04:28:23.059Z,93.23
2016-10-12T04:29:23.030Z,93.04
2016-10-12T04:30:23.000Z,93.51
2016-10-12T04:31:22.974Z,93.32
2016-10-12T04:32:22.944Z,93.41
2016-10-12T04:33:22.919Z,93.32
2016-10-12T04:34:22.911Z,93.7
2016-10-12T04:35:22.869Z,93.6
2016-10-12T04:36:22.831Z,93.6
2016-10-12T04:37:22.805Z,93.51
2016-10-12T04:38:22.776Z,93.51
2016-10-12T04:39:22.747Z,93.79
2016-10-12T04:40:22.724Z,93.6
2016-10-12T04:41:22.690Z,93.79
2016-10-12T04:42:22.663Z,93.79
2016-10-12T04:43:22.637Z,93.51
2016-10-12T04:44:22.605Z,93.6
2016-10-12T04:45:22.579Z,93.6
2016-10-12T04:46:22.550Z,93.6
2016-10-12T04:47:22.522Z,93.6
2016-10-12T04:48:22.491Z,93.79
2016-10-12T04:49:22.464Z,93.79
2016-10-12T04:50:22.434Z,93.6
2016-10-12T04:51:22.431Z,93.32
2016-10-12T04:52:22.378Z,93.79
2016-10-12T04:53:22.359Z,93.79
2016-10-12T04:54:22.323Z,93.79
2016-10-12T04:55:22.293Z,93.79
2016-10-12T04:56:22.281Z,93.7
2016-10-12T04:57:22.238Z,93.6
2016-10-12T04:58:22.211Z,93.6
2016-10-12T04:59:22.179Z,93.79
2016-10-12T05:00:22.152Z,93.51
2016-10-12T05:01:22.566Z,93.51
2016-10-12T05:02:22.655Z,93.32
2016-10-12T05:03:22.066Z,93.6
2016-10-12T05:04:22.037Z,93.6
2016-10-12T05:05:22.009Z,93.7
2016-10-12T05:06:21.982Z,93.79
2016-10-12T05:07:21.954Z,93.6
2016-10-12T05:08:21.927Z,93.6
2016-10-12T05:09:21.898Z,93.79
2016-10-12T05:10:21.868Z,93.6
2016-10-12T05:11:21.841Z,93.89
2016-10-12T05:12:21.815Z,93.6
2016-10-12T05:13:21.783Z,93.6
2016-10-12T05:14:21.754Z,93.23
2016-10-12T05:15:21.729Z,93.6
2016-10-12T05:16:21.698Z,93.51
2016-10-12T05:17:21.668Z,93.6
2016-10-12T05:18:21.817Z,93.23
2016-10-12T05:19:21.878Z,93.32
2016-10-12T05:20:22.041Z,93.13
2016-10-12T05:21:21.738Z,93.13
2016-10-12T05:22:21.526Z,92.84
2016-10-12T05:23:21.499Z,92.65
2016-10-12T05:24:21.490Z,93.04
2016-10-12T05:25:21.443Z,92.65
2016-10-12T05:26:21.414Z,93.13
2016-10-12T05:27:21.387Z,93.13
2016-10-12T05:28:21.355Z,93.13
2016-10-12T05:29:21.328Z,93.32
2016-10-12T05:30:21.302Z,93.6
2016-10-12T05:31:21.273Z,93.6
2016-10-12T05:32:21.244Z,93.32
2016-10-12T05:33:21.218Z,93.41
2016-10-12T05:34:21.187Z,93.32
2016-10-12T05:35:21.161Z,92.94
2016-10-12T05:36:21.129Z,93.23
2016-10-12T05:37:21.100Z,93.32
2016-10-12T05:38:21.073Z,93.6
2016-10-12T05:39:21.042Z,93.32
2016-10-12T05:40:21.016Z,93.04
2016-10-12T05:41:20.988Z,93.13
2016-10-12T05:42:20.957Z,93.41
2016-10-12T05:43:20.930Z,93.41
2016-10-12T05:44:20.901Z,93.41
2016-10-12T05:45:20.875Z,93.32
2016-10-12T05:46:20.846Z,93.04
2016-10-12T05:47:20.815Z,93.04
2016-10-12T05:48:20.788Z,92.75
2016-10-12T05:49:20.759Z,93.04
2016-10-12T05:50:20.736Z,93.04
2016-10-12T05:51:20.700Z,93.04
2016-10-12T05:52:20.674Z,93.23
2016-10-12T05:53:20.644Z,92.75
2016-10-12T05:54:20.618Z,92.65
2016-10-12T05:55:20.597Z,92.75
2016-10-12T05:56:20.578Z,92.75
2016-10-12T05:57:20.534Z,92.84
2016-10-12T05:58:20.503Z,92.84
2016-10-12T05:59:20.478Z,92.84
2016-10-12T06:00:20.447Z,92.56
2016-10-12T06:01:20.417Z,92.75
2016-10-12T06:02:20.389Z,93.04
2016-10-12T06:03:20.363Z,93.04
2016-10-12T06:04:20.332Z,92.94
2016-10-12T06:05:20.303Z,92.84
2016-10-12T06:06:20.277Z,92.65
2016-10-12T06:07:20.248Z,92.56
2016-10-12T06:08:20.224Z,92.65
2016-10-12T06:09:20.196Z,92.65
2016-10-12T06:10:20.164Z,92.84
2016-10-12T06:11:20.136Z,92.75
2016-10-12T06:12:20.114Z,92.75
2016-10-12T06:13:20.077Z,93.41
2016-10-12T06:14:20.050Z,92.46
2016-10-12T06:15:20.022Z,93.51
2016-10-12T06:16:19.992Z,92.56
2016-10-12T06:17:19.963Z,93.23
2016-10-12T06:18:19.938Z,93.23
2016-10-12T06:19:19.908Z,92.84
2016-10-12T06:20:19.883Z,92.65
2016-10-12T06:21:19.919Z,92.56
2016-10-12T06:22:19.827Z,92.75
2016-10-12T06:23:19.798Z,92.65
2016-10-12T06:24:19.769Z,92.75
2016-10-12T06:25:19.740Z,92.94
2016-10-12T06:26:19.712Z,92.84
2016-10-12T06:27:19.686Z,92.94
2016-10-12T06:28:19.656Z,92.94
2016-10-12T06:29:19.627Z,93.04
2016-10-12T06:30:19.600Z,93.23
2016-10-12T06:31:19.572Z,92.65
2016-10-12T06:32:19.541Z,92.75
2016-10-12T06:33:19.515Z,92.65
2016-10-12T06:34:19.485Z,92.65
2016-10-12T06:35:19.458Z,92.56
2016-10-12T06:36:19.431Z,92.75
2016-10-12T06:37:19.402Z,92.75
2016-10-12T06:38:19.375Z,92.65
2016-10-12T06:39:19.345Z,92.36
2016-10-12T06:40:19.314Z,92.36
2016-10-12T06:41:19.285Z,92.84
2016-10-12T06:42:19.257Z,92.75
2016-10-12T06:43:19.230Z,92.75
2016-10-12T06:44:19.202Z,92.56
2016-10-12T06:45:19.172Z,92.56
2016-10-12T06:46:19.145Z,92.75
2016-10-12T06:47:19.116Z,92.84
2016-10-12T06:48:19.089Z,92.84
2016-10-12T06:49:19.056Z,92.84
2016-10-12T06:50:19.030Z,92.94
2016-10-12T06:51:19.004Z,92.75
2016-10-12T06:52:18.973Z,92.84
2016-10-12T06:53:18.946Z,92.94
2016-10-12T06:54:19.216Z,92.84
2016-10-12T06:55:18.889Z,92.08
2016-10-12T06:56:18.861Z,91.99
2016-10-12T06:57:18.830Z,91.99
2016-10-12T06:58:18.803Z,92.08
2016-10-12T06:59:18.773Z,92.08
2016-10-12T07:00:18.748Z,91.89
2016-10-12T07:01:18.718Z,91.8
2016-10-12T07:02:18.690Z,92.08
2016-10-12T07:03:18.661Z,92.08
2016-10-12T07:04:18.635Z,92.08
2016-10-12T07:05:18.608Z,92.18
2016-10-12T07:06:18.581Z,92.36
2016-10-12T07:07:18.548Z,92.18
2016-10-12T07:08:18.523Z,91.51
2016-10-12T07:09:18.492Z,91.61
2016-10-12T07:10:18.466Z,91.7
2016-10-12T07:11:18.529Z,91.89
2016-10-12T07:12:18.410Z,91.8
2016-10-12T07:13:18.685Z,92.08
2016-10-12T07:14:18.355Z,91.7
2016-10-12T07:15:18.326Z,91.7
2016-10-12T07:16:18.297Z,91.51
2016-10-12T07:17:18.268Z,91.7
2016-10-12T07:18:18.243Z,91.7
2016-10-12T07:19:18.213Z,91.89
2016-10-12T07:20:18.184Z,91.99
2016-10-12T07:21:18.156Z,91.51
2016-10-12T07:22:18.760Z,91.61
2016-10-12T07:23:18.735Z,91.51
2016-10-12T07:24:18.111Z,91.51
2016-10-12T07:25:18.073Z,91.51
2016-10-12T07:26:18.016Z,91.61
2016-10-12T07:27:18.021Z,91.61
2016-10-12T07:28:17.960Z,91.61
2016-10-12T07:29:17.933Z,91.42
2016-10-12T07:30:17.906Z,91.03
2016-10-12T07:31:17.878Z,91.22
2016-10-12T07:32:17.851Z,91.22
2016-10-12T07:33:17.821Z,90.94
2016-10-12T07:34:17.794Z,90.84
2016-10-12T07:35:17.767Z,90.94
2016-10-12T07:36:17.735Z,90.84
2016-10-12T07:37:17.709Z,90.75
2016-10-12T07:38:17.683Z,91.03
2016-10-12T07:39:17.653Z,90.84
2016-10-12T07:40:17.799Z,91.03
2016-10-12T07:41:17.600Z,90.94
2016-10-12T07:42:17.570Z,90.84
2016-10-12T07:43:17.544Z,91.22
2016-10-12T07:44:17.514Z,90.84
2016-10-12T07:45:17.488Z,90.94
2016-10-12T07:46:17.463Z,91.03
2016-10-12T07:47:17.433Z,90.47
2016-10-12T07:48:17.405Z,90.94
2016-10-12T07:49:17.375Z,90.84
2016-10-12T07:50:17.373Z,90.75
2016-10-12T07:51:17.317Z,90.47
2016-10-12T07:52:17.290Z,90.66
2016-10-12T07:53:17.264Z,90.84
2016-10-12T07:54:17.385Z,90.84
2016-10-12T07:55:17.673Z,90.75
2016-10-12T07:56:17.180Z,90.66
2016-10-12T07:57:17.202Z,90.84
2016-10-12T07:58:17.479Z,90.84
2016-10-12T07:59:17.095Z,90.18
2016-10-12T08:00:17.091Z,90.66
2016-10-12T08:01:17.701Z,90.84
2016-10-12T08:02:17.352Z,90.7
2016-10-12T08:03:17.396Z,90.7
2016-10-12T08:04:17.087Z,91.08
2016-10-12T08:05:17.082Z,90.75
2016-10-12T08:06:17.006Z,90.66
2016-10-12T08:07:16.936Z,90.8
2016-10-12T08:08:16.852Z,90.47
2016-10-12T08:09:16.938Z,90.7
2016-10-12T08:10:16.794Z,90.61
2016-10-12T08:11:16.767Z,90.8
2016-10-12T08:12:16.738Z,90.51
2016-10-12T08:13:16.709Z,90.32
2016-10-12T08:14:16.685Z,90.42
2016-10-12T08:15:16.657Z,90.13
2016-10-12T08:16:16.627Z,90.42
2016-10-12T08:17:16.602Z,90.03
2016-10-12T08:18:16.571Z,90.32
2016-10-12T08:19:16.570Z,90.42
2016-10-12T08:20:16.523Z,90.13
2016-10-12T08:21:16.490Z,90.22
2016-10-12T08:22:16.463Z,90.13
2016-10-12T08:23:16.732Z,90.42
2016-10-12T08:24:16.407Z,90.22
2016-10-12T08:25:16.379Z,90.32
2016-10-12T08:26:16.657Z,90.32
2016-10-12T08:27:16.328Z,90.51
2016-10-12T08:28:16.296Z,90.42
2016-10-12T08:29:16.273Z,89.94
2016-10-12T08:30:16.538Z,90.22
2016-10-12T08:31:16.215Z,90.51
2016-10-12T08:32:16.185Z,90.42
2016-10-12T08:33:16.458Z,89.84
2016-10-12T08:34:16.428Z,89.84
2016-10-12T08:35:16.104Z,90.03
2016-10-12T08:36:16.078Z,90.03
2016-10-12T08:37:16.054Z,90.03
2016-10-12T08:38:16.023Z,90.13
2016-10-12T08:39:15.993Z,90.03
2016-10-12T08:40:15.967Z,90.03
2016-10-12T08:41:15.943Z,90.03
2016-10-12T08:42:15.915Z,89.37
2016-10-12T08:43:15.888Z,89.56
2016-10-12T08:44:15.858Z,89.56
2016-10-12T08:45:15.831Z,89.75
2016-10-12T08:46:15.804Z,89.56
2016-10-12T08:47:15.779Z,89.94
2016-10-12T08:48:15.749Z,89.56
2016-10-12T08:49:15.722Z,89.08
2016-10-12T08:50:15.694Z,88.99
2016-10-12T08:51:15.670Z,89.18
2016-10-12T08:52:15.640Z,89.56
2016-10-12T08:53:15.613Z,89.27
2016-10-12T08:54:15.586Z,88.99
2016-10-12T08:55:15.558Z,89.47
2016-10-12T08:56:15.532Z,88.99
2016-10-12T08:57:15.505Z,88.99
2016-10-12T08:58:15.516Z,89.37
2016-10-12T08:59:15.449Z,88.79
2016-10-12T09:00:15.423Z,88.89
2016-10-12T09:01:15.400Z,89.47
2016-10-12T09:02:15.367Z,88.7
2016-10-12T09:03:15.341Z,88.79
2016-10-12T09:04:15.311Z,88.7
2016-10-12T09:05:15.286Z,88.6
2016-10-12T09:06:15.260Z,88.42
2016-10-12T09:07:15.237Z,87.94
2016-10-12T09:08:15.205Z,88.04
2016-10-12T09:09:15.179Z,88.42
2016-10-12T09:10:15.154Z,88.04
2016-10-12T09:11:15.123Z,88.42
2016-10-12T09:12:15.100Z,88.42
2016-10-12T09:13:15.069Z,88.32
2016-10-12T09:14:15.044Z,88.42
2016-10-12T09:15:15.014Z,87.75
2016-10-12T09:16:14.997Z,87.94
2016-10-12T09:17:14.960Z,87.37
2016-10-12T09:18:14.935Z,87.65
2016-10-12T09:19:14.907Z,87.85
2016-10-12T09:20:14.882Z,87.41
2016-10-12T09:21:14.856Z,87.41
2016-10-12T09:22:14.829Z,87.89
2016-10-12T09:23:14.803Z,87.7
2016-10-12T09:24:14.774Z,87.79
2016-10-12T09:25:14.750Z,87.23
2016-10-12T09:26:14.729Z,87.41
2016-10-12T09:27:14.697Z,87.32
2016-10-12T09:28:14.671Z,86.65
2016-10-12T09:29:14.642Z,87.03
2016-10-12T09:30:14.624Z,87.03
2016-10-12T09:31:14.600Z,86.94
2016-10-12T09:32:14.566Z,86.18
2016-10-12T09:33:14.547Z,86.27
2016-10-12T09:34:14.517Z,86.46
2016-10-12T09:35:14.491Z,86.84
2016-10-12T09:36:14.462Z,86.27
2016-10-12T09:37:14.438Z,85.8
2016-10-12T09:38:14.411Z,85.8
2016-10-12T09:39:14.387Z,85.7
2016-10-12T09:40:14.359Z,85.32
2016-10-12T09:41:14.333Z,85.13
2016-10-12T09:42:14.306Z,85.41
2016-10-12T09:43:14.281Z,85.51
2016-10-12T09:44:14.256Z,85.13
2016-10-12T09:45:14.227Z,84.94
2016-10-12T09:46:14.202Z,84.84
2016-10-12T09:47:14.176Z,85.22
2016-10-12T09:48:14.152Z,85.13
2016-10-12T09:49:14.138Z,85.13
2016-10-12T09:50:14.100Z,85.13
2016-10-12T09:51:14.070Z,85.22
2016-10-12T09:52:14.095Z,85.51
2016-10-12T09:53:14.018Z,85.13
2016-10-12T09:54:13.995Z,84.94
2016-10-12T09:55:13.965Z,85.51
2016-10-12T09:56:13.941Z,85.41
2016-10-12T09:57:13.915Z,85.32
2016-10-12T09:58:13.890Z,85.51
2016-10-12T09:59:13.863Z,85.64
2016-10-12T10:00:13.838Z,85.32
2016-10-12T10:01:13.812Z,85.41
2016-10-12T10:02:13.781Z,85.64
2016-10-12T10:03:13.759Z,85.51
2016-10-12T10:04:13.737Z,85.8
2016-10-12T10:05:13.720Z,85.6
2016-10-12T10:06:13.682Z,85.64
2016-10-12T10:07:13.660Z,85.41
2016-10-12T10:08:13.628Z,86.03
2016-10-12T10:09:13.601Z,85.64
2016-10-12T10:10:13.576Z,85.17
2016-10-12T10:11:13.549Z,85.36
2016-10-12T10:12:13.522Z,85.55
2016-10-12T10:13:13.496Z,85.36
2016-10-12T10:14:13.471Z,85.17
2016-10-12T10:15:13.441Z,85.55
2016-10-12T10:16:13.419Z,85.27
2016-10-12T10:17:13.391Z,85.46
2016-10-12T10:18:13.364Z,85.17
2016-10-12T10:19:13.340Z,85.17
2016-10-12T10:20:13.317Z,84.69
2016-10-12T10:21:13.287Z,84.69
2016-10-12T10:22:13.261Z,84.65
2016-10-12T10:23:13.234Z,84.75
2016-10-12T10:24:13.209Z,85.41
2016-10-12T10:25:13.179Z,85.13
2016-10-12T10:26:13.155Z,85.13
2016-10-12T10:27:13.129Z,85.17
2016-10-12T10:28:13.101Z,84.84
2016-10-12T10:29:13.074Z,85.03
2016-10-12T10:30:13.050Z,85.13
2016-10-12T10:31:13.023Z,85.13
2016-10-12T10:32:12.997Z,85.41
2016-10-12T10:33:12.967Z,85.55
2016-10-12T10:34:12.942Z,85.32
2016-10-12T10:35:12.921Z,85.27
2016-10-12T10:36:12.891Z,85.22
2016-10-12T10:37:12.863Z,85.46
2016-10-12T10:38:12.838Z,85.46
2016-10-12T10:39:12.809Z,85.51
2016-10-12T10:40:12.788Z,85.17
2016-10-12T10:41:12.765Z,85.55
2016-10-12T10:42:12.734Z,85.36
2016-10-12T10:43:12.703Z,85.17
2016-10-12T10:44:12.679Z,84.98
2016-10-12T10:45:12.654Z,84.88
2016-10-12T10:46:12.627Z,85.27
2016-10-12T10:47:12.602Z,84.98
2016-10-12T10:48:12.737Z,85.08
2016-10-12T10:49:12.603Z,85.17
2016-10-12T10:50:12.527Z,85.17
2016-10-12T10:51:12.764Z,84.5
2016-10-12T10:52:12.475Z,84.5
2016-10-12T10:53:12.448Z,84.31
2016-10-12T10:54:12.422Z,84.69
2016-10-12T10:55:12.401Z,84.31
2016-10-12T10:56:12.371Z,84.16
2016-10-12T10:57:12.345Z,84.12
2016-10-12T10:58:12.321Z,84.12
2016-10-12T10:59:12.294Z,83.97
2016-10-12T11:00:12.270Z,84.16
2016-10-12T11:01:12.244Z,84.55
2016-10-12T11:02:12.219Z,84.55
2016-10-12T11:03:12.195Z,84.16
2016-10-12T11:04:12.167Z,83.12
2016-10-12T11:05:12.143Z,83.5
2016-10-12T11:06:12.138Z,82.92
2016-10-12T11:07:12.093Z,82.83
2016-10-12T11:08:12.067Z,82.92
2016-10-12T11:09:12.042Z,82.73
2016-10-12T11:10:12.016Z,82.83
2016-10-12T11:11:11.993Z,83.02
2016-10-12T11:12:11.967Z,82.45
2016-10-12T11:13:11.940Z,82.73
2016-10-12T11:14:11.916Z,83.59
2016-10-12T11:15:11.892Z,82.64
2016-10-12T11:16:11.863Z,83.02
2016-10-12T11:17:11.838Z,82.54
2016-10-12T11:18:11.815Z,82.92
2016-10-12T11:19:11.788Z,82.54
2016-10-12T11:20:12.061Z,82.31
2016-10-12T11:21:11.739Z,82.73
2016-10-12T11:22:11.713Z,82.5
2016-10-12T11:23:11.686Z,82.31
2016-10-12T11:24:11.661Z,82.89
2016-10-12T11:25:11.635Z,83.5
2016-10-12T11:26:11.609Z,82.73
2016-10-12T11:27:11.584Z,82.92
2016-10-12T11:28:11.558Z,83.4
2016-10-12T11:29:11.533Z,82.92
2016-10-12T11:30:11.506Z,82.73
2016-10-12T12:41:29.186Z,79.67
2016-10-12T12:41:41.921Z,79.57
2016-10-12T12:42:41.958Z,79.77
2016-10-12T12:43:42.046Z,79.38
2016-10-12T12:44:41.841Z,79.28
2016-10-12T12:45:41.817Z,79.77
2016-10-12T12:46:41.794Z,79.67
2016-10-12T12:47:41.770Z,79.38
2016-10-12T12:48:41.744Z,79.48
2016-10-12T12:49:41.719Z,79.57
2016-10-12T12:50:41.727Z,79.57
2016-10-12T12:51:42.226Z,79.57
2016-10-12T12:52:41.650Z,79.67
2016-10-12T12:53:41.624Z,79.67
2016-10-12T12:54:41.599Z,79.67
2016-10-12T12:55:41.575Z,79.77
2016-10-12T12:56:41.552Z,79.67
2016-10-12T12:57:42.171Z,79
2016-10-12T12:58:41.505Z,79.77
2016-10-12T12:59:41.476Z,79.15
2016-10-12T13:00:41.450Z,78.96
2016-10-12T13:01:41.428Z,79.06
2016-10-12T13:02:41.401Z,78.58
2016-10-12T13:03:41.493Z,78.77
2016-10-12T13:04:41.349Z,78.58
2016-10-12T13:05:41.326Z,78.58
2016-10-12T13:06:41.301Z,79.11
2016-10-12T13:07:41.283Z,79.25
2016-10-12T13:08:41.288Z,78.92
2016-10-12T13:09:41.226Z,78.44
2016-10-12T13:10:41.199Z,79.21
2016-10-12T13:11:41.172Z,79.21
2016-10-12T13:12:41.247Z,79.02
2016-10-12T13:13:41.122Z,79.21
2016-10-12T13:14:41.096Z,79.21
2016-10-12T13:15:41.072Z,79.59
2016-10-12T13:16:41.092Z,79.68
2016-10-12T13:17:41.017Z,79.59
2016-10-12T13:18:41.095Z,79.68
2016-10-12T13:19:40.966Z,79.59
2016-10-12T13:20:41.016Z,79.4
2016-10-12T13:21:40.913Z,79.21
2016-10-12T13:22:40.889Z,79.68
2016-10-12T13:23:40.862Z,79.88
2016-10-12T13:24:41.030Z,79.59
2016-10-12T13:25:40.813Z,79.97
2016-10-12T13:26:40.786Z,80.35
2016-10-12T13:27:41.212Z,79.4
2016-10-12T13:28:40.738Z,79.78
2016-10-12T13:29:40.791Z,79.59
2016-10-12T13:30:40.746Z,80.07
2016-10-12T13:31:40.659Z,79.88
2016-10-12T13:32:40.631Z,80.35
2016-10-12T13:33:41.076Z,79.78
2016-10-12T13:34:40.873Z,79.59
2016-10-12T13:35:40.559Z,79.59
2016-10-12T13:36:40.531Z,79.49
2016-10-12T13:37:40.834Z,79.49
2016-10-12T13:38:40.483Z,79.02
2016-10-12T13:39:40.454Z,79.49
2016-10-12T13:40:40.456Z,79.3
2016-10-12T13:41:40.786Z,79.4
2016-10-12T13:42:40.378Z,79.11
2016-10-12T13:43:40.623Z,78.92
2016-10-12T13:44:40.323Z,79.02
2016-10-12T13:45:40.344Z,79.4
2016-10-12T13:46:40.272Z,79.4
2016-10-12T13:47:40.247Z,79.49
2016-10-12T13:48:40.328Z,79.4
2016-10-12T13:49:40.195Z,79.49
2016-10-12T13:50:40.820Z,79.3
2016-10-12T13:51:40.144Z,79.4
2016-10-12T13:52:40.118Z,79.49
2016-10-12T13:53:40.206Z,79.68
2016-10-12T13:54:40.093Z,79.59
2016-10-12T13:55:40.039Z,79.68
2016-10-12T13:56:40.016Z,79.59
2016-10-12T13:57:39.987Z,79.49
2016-10-12T13:58:40.257Z,79.97
2016-10-12T13:59:39.954Z,79.97
2016-10-12T14:00:39.911Z,80.26
2016-10-12T14:01:39.883Z,79.97
2016-10-12T14:02:40.732Z,80.16
2016-10-12T14:03:39.835Z,80.35
2016-10-12T14:04:39.810Z,80.07